Silver Ray — D5DR6 — position and weather

sailwx.info

Track history (hours):
 
Tides and Currents Weather Stations Pressure Air Temp Water Temp Dewpoint Dewpoint Depression Visibility Wind Speed Wind Dir Waves Ship Positions

Silver Ray

Last reported at 2018-Jun-18 22:07 UTC. Time now 2018-Jun-24 11:13 UTC.
Position N 48°53' W 006°39'.

Length 142 m; draft 10.3 m.

Type: Tanker. MMSI: 636015953.

Date/timePositionNaut miles runAvg speedWind from/ knotsBaromVisibWave heightAir tempDewpointWater temp
2018-Jun-18 22:07N 48°53' W 006°39'212.2
2018-Jun-18 21:58N 48°53' W 006°36'612.2
2018-Jun-18 21:29N 48°56' W 006°28'612.0
2018-Jun-18 20:58N 48°59' W 006°20'511.8
2018-Jun-18 20:31N 49°01' W 006°12'611.5
2018-Jun-18 20:01N 49°04' W 006°05'711.3
2018-Jun-18 19:21N 49°08' W 005°55'10912.5
2018-Jun-18 10:41N 49°52' W 003°22'311.6
2018-Jun-18 10:27N 49°53' W 003°18'1111.5
2018-Jun-18 09:31N 49°57' W 003°02'011.5
2018-Jun-18 09:30N 49°57' W 003°02'611.9
2018-Jun-18 09:00N 49°59' W 002°54'612.3
2018-Jun-18 08:30N 50°01' W 002°45'713.0
2018-Jun-18 07:58N 50°03' W 002°34'713.9
2018-Jun-18 07:28N 50°06' W 002°24'914.8
2018-Jun-18 06:52N 50°09' W 002°11'1315.9
2018-Jun-18 06:03N 50°12' W 001°51'816.6
2018-Jun-18 05:34N 50°15' W 001°40'716.8
2018-Jun-18 05:09N 50°16' W 001°29'7013.8
2018-Jun-18 00:05N 50°35' E 000°17'110.8
2018-Jun-17 23:59N 50°35' E 000°18'510.6
2018-Jun-17 23:30N 50°37' E 000°26'611.1
2018-Jun-17 23:00N 50°38' E 000°35'612.0
2018-Jun-17 22:30N 50°41' E 000°43'713.0
2018-Jun-17 22:00N 50°45' E 000°51'714.0
2018-Jun-17 21:30N 50°49' E 000°60'714.7
2018-Jun-17 21:00N 50°54' E 001°09'714.9
2018-Jun-17 20:31N 50°59' E 001°17'714.7
2018-Jun-17 20:00N 51°04' E 001°26'713.9
2018-Jun-17 19:30N 51°08' E 001°35'713.1
2018-Jun-17 19:00N 51°12' E 001°43'612.4
2018-Jun-17 18:30N 51°17' E 001°49'611.8
2018-Jun-17 18:00N 51°22' E 001°55'510.2
2018-Jun-17 17:30N 51°25' E 002°02'612.8
2018-Jun-17 17:00N 51°22' E 002°11'611.3
2018-Jun-17 16:30N 51°21' E 002°20'511.0
2018-Jun-17 16:00N 51°22' E 002°28'610.9
2018-Jun-17 15:28N 51°23' E 002°38'4 9.5
2018-Jun-17 14:59N 51°23' E 002°45'4 8.2
2018-Jun-17 14:30N 51°22' E 002°51'510.3
2018-Jun-17 14:00N 51°23' E 002°59'510.9
2018-Jun-17 13:30N 51°24' E 003°08'611.8
2018-Jun-17 13:00N 51°25' E 003°17'611.6
2018-Jun-17 12:30N 51°25' E 003°26'510.2
2018-Jun-17 12:00N 51°26' E 003°34'4 8.4
2018-Jun-17 11:30N 51°26' E 003°41'510.3
2018-Jun-17 11:00N 51°22' E 003°46'510.7
2018-Jun-17 10:30N 51°22' E 003°54'611.2
2018-Jun-17 10:00N 51°26' E 003°60'510.8
2018-Jun-17 09:30N 51°22' E 004°05'5 9.6
2018-Jun-17 09:00N 51°23' E 004°13'3 5.3
2018-Jun-17 08:30N 51°21' E 004°16'1 1.5
2018-Jun-17 08:00N 51°21' E 004°17'0 0.0
2018-Jun-17 07:31N 51°21' E 004°17'2 4.8
2018-Jun-17 07:01N 51°19' E 004°19'3 5.5
2018-Jun-17 06:30N 51°16' E 004°21'2 2.9
2018-Jun-17 05:58N 51°15' E 004°23'0 0.0
2018-Jun-17 05:25N 51°15' E 004°23'0 0.0
2018-Jun-17 04:58N 51°15' E 004°23'0 0.0
2018-Jun-17 04:28N 51°15' E 004°23'0 0.0
2018-Jun-17 03:58N 51°15' E 004°23'0 0.0
2018-Jun-17 03:28N 51°15' E 004°23'0 0.0
2018-Jun-17 02:58N 51°15' E 004°23'0 0.0
2018-Jun-17 02:28N 51°15' E 004°23'0 0.0
2018-Jun-17 01:58N 51°15' E 004°23'0 0.0
2018-Jun-17 01:28N 51°15' E 004°23'0 0.0
2018-Jun-17 00:58N 51°15' E 004°23'0 0.0
2018-Jun-17 00:28N 51°15' E 004°23'0 0.0
2018-Jun-16 23:58N 51°15' E 004°23'0 0.0
2018-Jun-16 23:25N 51°15' E 004°23'0 0.0
2018-Jun-16 22:58N 51°15' E 004°23'0 0.0
2018-Jun-16 22:28N 51°15' E 004°23'0 0.0
2018-Jun-16 21:55N 51°15' E 004°23'0 0.0
2018-Jun-16 21:28N 51°15' E 004°23'0 0.0
2018-Jun-16 20:58N 51°15' E 004°23'0 0.0
2018-Jun-16 20:28N 51°15' E 004°23'0 0.0
2018-Jun-16 19:58N 51°15' E 004°23'0 0.0
2018-Jun-16 19:28N 51°15' E 004°23'0 0.0
2018-Jun-16 18:58N 51°15' E 004°23'0 0.0
2018-Jun-16 18:28N 51°15' E 004°23'0 0.0
2018-Jun-16 17:58N 51°15' E 004°23'0 0.0
2018-Jun-16 17:28N 51°15' E 004°23'0 0.0
2018-Jun-16 16:58N 51°15' E 004°23'0 0.0
2018-Jun-16 16:28N 51°15' E 004°23'0 0.0
2018-Jun-16 15:58N 51°15' E 004°23'0 0.0
2018-Jun-16 15:28N 51°15' E 004°23'0 0.0
2018-Jun-16 14:58N 51°15' E 004°23'0 0.0
2018-Jun-16 14:28N 51°15' E 004°23'0 0.0
2018-Jun-16 13:58N 51°15' E 004°23'0 0.0
2018-Jun-16 13:25N 51°15' E 004°23'0 0.5
2018-Jun-16 12:58N 51°15' E 004°22'0 0.0
2018-Jun-16 12:28N 51°15' E 004°22'0 0.0
2018-Jun-16 11:55N 51°15' E 004°22'0 0.0
2018-Jun-16 11:28N 51°15' E 004°22'0 0.0
2018-Jun-16 10:58N 51°15' E 004°22'0 0.0
2018-Jun-16 10:28N 51°15' E 004°22'0 0.0
2018-Jun-16 09:58N 51°15' E 004°22'0 0.0
2018-Jun-16 09:28N 51°15' E 004°22'0 0.0
2018-Jun-16 08:58N 51°15' E 004°22'0 0.0
2018-Jun-16 08:28N 51°15' E 004°22'0 0.0
2018-Jun-16 07:58N 51°15' E 004°22'0 0.0
2018-Jun-16 07:28N 51°15' E 004°22'0 0.0
2018-Jun-16 06:58N 51°15' E 004°22'0 0.0
2018-Jun-16 06:28N 51°15' E 004°22'0 0.0
2018-Jun-16 05:58N 51°15' E 004°22'0 0.0
2018-Jun-16 05:28N 51°15' E 004°22'0 0.0
2018-Jun-16 04:58N 51°15' E 004°22'0 0.0
2018-Jun-16 04:28N 51°15' E 004°22'0 0.0
2018-Jun-16 03:58N 51°15' E 004°22'0 0.0
2018-Jun-16 03:25N 51°15' E 004°22'0 0.0
2018-Jun-16 02:58N 51°15' E 004°22'0 0.0
2018-Jun-16 02:28N 51°15' E 004°22'0 0.0
2018-Jun-16 01:58N 51°15' E 004°22'0 0.0
2018-Jun-16 01:28N 51°15' E 004°22'0 0.0
2018-Jun-16 00:58N 51°15' E 004°22'0 0.0
2018-Jun-16 00:28N 51°15' E 004°22'0 0.0
2018-Jun-15 23:58N 51°15' E 004°22'0 0.0
2018-Jun-15 23:25N 51°15' E 004°22'0 0.0
2018-Jun-15 22:55N 51°15' E 004°22'0 0.0
2018-Jun-15 22:25N 51°15' E 004°22'0 0.0
2018-Jun-15 21:58N 51°15' E 004°22'0 0.0
2018-Jun-15 21:28N 51°15' E 004°22'0 0.0
2018-Jun-15 20:58N 51°15' E 004°22'0 0.0
2018-Jun-15 20:22N 51°15' E 004°22'0 0.0
2018-Jun-15 19:49N 51°15' E 004°22'0 0.0
2018-Jun-15 19:28N 51°15' E 004°22'0 0.0
2018-Jun-15 18:58N 51°15' E 004°22'0 0.0
2018-Jun-15 18:28N 51°15' E 004°22'0 0.0
2018-Jun-15 17:49N 51°15' E 004°22'0 0.0
2018-Jun-15 17:28N 51°15' E 004°22'0 0.0
2018-Jun-15 16:58N 51°15' E 004°22'0 0.0
2018-Jun-15 16:28N 51°15' E 004°22'0 0.0
2018-Jun-15 15:55N 51°15' E 004°22'0 0.0
2018-Jun-15 15:28N 51°15' E 004°22'0 0.0
2018-Jun-15 14:58N 51°15' E 004°22'0 0.0
2018-Jun-15 14:28N 51°15' E 004°22'0 0.0
2018-Jun-15 13:58N 51°15' E 004°22'0 0.0
2018-Jun-15 13:28N 51°15' E 004°22'0 0.0
2018-Jun-15 12:58N 51°15' E 004°22'0 0.0
2018-Jun-15 12:28N 51°15' E 004°22'0 0.0
2018-Jun-15 11:58N 51°15' E 004°22'0 0.0
2018-Jun-15 11:28N 51°15' E 004°22'0 0.0
2018-Jun-15 10:58N 51°15' E 004°22'0 0.0
2018-Jun-15 10:28N 51°15' E 004°22'0 0.0
2018-Jun-15 09:58N 51°15' E 004°22'0 0.0
2018-Jun-15 09:28N 51°15' E 004°22'0 0.0
2018-Jun-15 08:58N 51°15' E 004°22'0 0.0
2018-Jun-15 08:25N 51°15' E 004°22'0 0.0
2018-Jun-15 07:58N 51°15' E 004°22'0 0.0
2018-Jun-15 07:28N 51°15' E 004°22'0 0.0
2018-Jun-15 06:58N 51°15' E 004°22'0 0.0
2018-Jun-15 06:22N 51°15' E 004°22'0 0.0
2018-Jun-15 05:58N 51°15' E 004°22'0 0.0
2018-Jun-15 05:28N 51°15' E 004°22'0 0.0
2018-Jun-15 04:58N 51°15' E 004°22'0 0.0
2018-Jun-15 04:28N 51°15' E 004°22'0 0.0
2018-Jun-15 03:58N 51°15' E 004°22'0 0.0
2018-Jun-15 03:28N 51°15' E 004°22'0 0.0
2018-Jun-15 02:58N 51°15' E 004°22'0 0.0
2018-Jun-15 02:28N 51°15' E 004°22'0 0.0
2018-Jun-15 01:58N 51°15' E 004°22'0 0.0
2018-Jun-15 01:28N 51°15' E 004°22'0 0.0
2018-Jun-15 00:58N 51°15' E 004°22'0 0.0
2018-Jun-15 00:25N 51°15' E 004°22'0 0.0
2018-Jun-14 23:58N 51°15' E 004°22'0 0.0
2018-Jun-14 23:28N 51°15' E 004°22'0 0.0
2018-Jun-14 22:58N 51°15' E 004°22'0 0.0
2018-Jun-14 22:25N 51°15' E 004°22'0 0.0
2018-Jun-14 21:58N 51°15' E 004°22'0 0.0
2018-Jun-14 21:28N 51°15' E 004°22'0 0.0
2018-Jun-14 20:58N 51°15' E 004°22'0 0.0
2018-Jun-14 20:28N 51°15' E 004°22'0 0.0
2018-Jun-14 19:58N 51°15' E 004°22'0 0.0
2018-Jun-14 19:28N 51°15' E 004°22'0 0.0
2018-Jun-14 18:58N 51°15' E 004°22'0 0.0
2018-Jun-14 18:28N 51°15' E 004°22'0 0.0
2018-Jun-14 17:58N 51°15' E 004°22'0 0.0
2018-Jun-14 17:28N 51°15' E 004°22'0 0.0
2018-Jun-14 16:58N 51°15' E 004°22'0 0.0
2018-Jun-14 16:28N 51°15' E 004°22'0 0.0
2018-Jun-14 15:58N 51°15' E 004°22'0 0.0
2018-Jun-14 15:28N 51°15' E 004°22'0 0.0
2018-Jun-14 14:58N 51°15' E 004°22'0 0.0
2018-Jun-14 14:28N 51°15' E 004°22'0 0.0
2018-Jun-14 13:58N 51°15' E 004°22'0 0.0
2018-Jun-14 13:28N 51°15' E 004°22'0 0.0
2018-Jun-14 12:58N 51°15' E 004°22'0 0.0
2018-Jun-14 12:28N 51°15' E 004°22'0 0.0
2018-Jun-14 11:58N 51°15' E 004°22'0 0.0
2018-Jun-14 11:28N 51°15' E 004°22'0 0.0
2018-Jun-14 10:55N 51°15' E 004°22'0 0.0
2018-Jun-14 10:28N 51°15' E 004°22'0 0.0
2018-Jun-14 09:58N 51°15' E 004°22'0 0.0
2018-Jun-14 09:28N 51°15' E 004°22'0 0.0
2018-Jun-14 08:58N 51°15' E 004°22'0 0.0
2018-Jun-14 08:16N 51°15' E 004°22'0 0.0
2018-Jun-14 07:55N 51°15' E 004°22'0 0.0
2018-Jun-14 07:28N 51°15' E 004°22'0 0.0
2018-Jun-14 06:58N 51°15' E 004°22'0 0.0
2018-Jun-14 06:28N 51°15' E 004°22'0 0.0
2018-Jun-14 05:58N 51°15' E 004°22'0 0.0
2018-Jun-14 05:28N 51°15' E 004°22'0 0.0
2018-Jun-14 04:58N 51°15' E 004°22'0 0.0
2018-Jun-14 04:28N 51°15' E 004°22'0 0.0
2018-Jun-14 03:58N 51°15' E 004°22'0 0.0
2018-Jun-14 03:28N 51°15' E 004°22'0 0.0
2018-Jun-14 02:58N 51°15' E 004°22'0 0.0
2018-Jun-14 02:28N 51°15' E 004°22'0 0.0
2018-Jun-14 01:58N 51°15' E 004°22'0 0.0
2018-Jun-14 01:28N 51°15' E 004°22'0 0.0
2018-Jun-14 00:58N 51°15' E 004°22'0 0.0
2018-Jun-14 00:28N 51°15' E 004°22'0 0.0
2018-Jun-13 23:58N 51°15' E 004°22'0 0.0
2018-Jun-13 23:28N 51°15' E 004°22'0 0.0
2018-Jun-13 22:55N 51°15' E 004°22'0 0.0
2018-Jun-13 22:28N 51°15' E 004°22'0 0.0
2018-Jun-13 21:55N 51°15' E 004°22'0 0.0
2018-Jun-13 21:28N 51°15' E 004°22'0 0.0
2018-Jun-13 20:58N 51°15' E 004°22'0 0.0
2018-Jun-13 20:28N 51°15' E 004°22'0 0.0
2018-Jun-13 19:58N 51°15' E 004°22'0 0.0
2018-Jun-13 19:28N 51°15' E 004°22'0 0.0
2018-Jun-13 18:58N 51°15' E 004°22'0 0.0
2018-Jun-13 18:25N 51°15' E 004°22'0 0.0
2018-Jun-13 17:58N 51°15' E 004°22'0 0.0
2018-Jun-13 17:22N 51°15' E 004°22'0 0.0
2018-Jun-13 16:58N 51°15' E 004°22'0 0.0
2018-Jun-13 16:28N 51°15' E 004°22'0 0.0
2018-Jun-13 15:55N 51°15' E 004°22'0 0.0
2018-Jun-13 15:28N 51°15' E 004°22'0 0.0
2018-Jun-13 15:00N 51°15' E 004°22'0 1.0
2018-Jun-13 14:30N 51°16' E 004°22'0 0.2
2018-Jun-13 13:50N 51°16' E 004°22'0 0.0
2018-Jun-13 13:23N 51°16' E 004°22'0 0.0
2018-Jun-13 12:56N 51°16' E 004°22'0 0.0
2018-Jun-13 12:26N 51°16' E 004°22'0 0.0
2018-Jun-13 11:59N 51°16' E 004°22'0 0.0
2018-Jun-13 11:29N 51°16' E 004°22'0 0.0
2018-Jun-13 10:56N 51°16' E 004°22'0 0.0
2018-Jun-13 10:29N 51°16' E 004°22'0 0.0
2018-Jun-13 09:59N 51°16' E 004°22'0 0.0
2018-Jun-13 09:26N 51°16' E 004°22'0 0.0
2018-Jun-13 08:59N 51°16' E 004°22'0 0.0
2018-Jun-13 08:29N 51°16' E 004°22'0 0.0
2018-Jun-13 07:59N 51°16' E 004°22'0 0.0
2018-Jun-13 07:29N 51°16' E 004°22'0 0.0
2018-Jun-13 06:56N 51°16' E 004°22'0 0.0
2018-Jun-13 06:29N 51°16' E 004°22'0 0.0
2018-Jun-13 05:59N 51°16' E 004°22'0 0.0
2018-Jun-13 05:29N 51°16' E 004°22'0 0.0
2018-Jun-13 04:59N 51°16' E 004°22'0 0.0
2018-Jun-13 04:26N 51°16' E 004°22'0 0.0
2018-Jun-13 03:59N 51°16' E 004°22'0 0.0
2018-Jun-13 03:29N 51°16' E 004°22'0 0.0
2018-Jun-13 02:59N 51°16' E 004°22'0 0.0
2018-Jun-13 02:26N 51°16' E 004°22'0 0.0
2018-Jun-13 01:56N 51°16' E 004°22'0 0.0
2018-Jun-13 01:29N 51°16' E 004°22'0 0.0
2018-Jun-13 00:56N 51°16' E 004°22'0 0.0
2018-Jun-13 00:29N 51°16' E 004°22'0 0.0
2018-Jun-12 23:59N 51°16' E 004°22'0 0.0
2018-Jun-12 23:29N 51°16' E 004°22'0 0.0
2018-Jun-12 22:56N 51°16' E 004°22'0 0.0
2018-Jun-12 22:29N 51°16' E 004°22'0 0.0
2018-Jun-12 21:59N 51°16' E 004°22'0 0.0
2018-Jun-12 21:29N 51°16' E 004°22'0 0.0
2018-Jun-12 20:56N 51°16' E 004°22'0 0.0
2018-Jun-12 20:29N 51°16' E 004°22'0 0.0
2018-Jun-12 19:59N 51°16' E 004°22'0 0.0
2018-Jun-12 19:29N 51°16' E 004°22'0 0.0
2018-Jun-12 18:59N 51°16' E 004°22'0 0.0
2018-Jun-12 18:29N 51°16' E 004°22'0 0.0
2018-Jun-12 17:59N 51°16' E 004°22'0 0.0
2018-Jun-12 17:29N 51°16' E 004°22'0 0.0
2018-Jun-12 16:59N 51°16' E 004°22'0 0.0
2018-Jun-12 16:29N 51°16' E 004°22'0 0.0
2018-Jun-12 15:59N 51°16' E 004°22'0 0.0
2018-Jun-12 15:23N 51°16' E 004°22'0 0.0
2018-Jun-12 14:59N 51°16' E 004°22'0 0.0
2018-Jun-12 14:29N 51°16' E 004°22'0 0.0
2018-Jun-12 13:59N 51°16' E 004°22'0 0.0
2018-Jun-12 13:29N 51°16' E 004°22'0 0.0
2018-Jun-12 12:59N 51°16' E 004°22'0 0.0
2018-Jun-12 12:29N 51°16' E 004°22'0 0.0
2018-Jun-12 11:59N 51°16' E 004°22'0 0.0
2018-Jun-12 11:29N 51°16' E 004°22'0 0.0
2018-Jun-12 10:56N 51°16' E 004°22'0 0.0
2018-Jun-12 10:29N 51°16' E 004°22'0 0.0
2018-Jun-12 09:59N 51°16' E 004°22'0 0.0
2018-Jun-12 09:29N 51°16' E 004°22'0 0.0
2018-Jun-12 08:59N 51°16' E 004°22'0 0.0
2018-Jun-12 08:26N 51°16' E 004°22'0 0.0
2018-Jun-12 07:59N 51°16' E 004°22'0 0.0
2018-Jun-12 07:29N 51°16' E 004°22'0 0.0
2018-Jun-12 06:59N 51°16' E 004°22'0 0.0
2018-Jun-12 06:29N 51°16' E 004°22'0 0.0
2018-Jun-12 05:50N 51°16' E 004°22'0 0.0
2018-Jun-12 05:29N 51°16' E 004°22'0 0.0
2018-Jun-12 04:59N 51°16' E 004°22'0 0.0
2018-Jun-12 04:26N 51°16' E 004°22'0 0.0
2018-Jun-12 03:59N 51°16' E 004°22'0 0.0
2018-Jun-12 03:29N 51°16' E 004°22'0 0.0
2018-Jun-12 02:59N 51°16' E 004°22'0 0.0
2018-Jun-12 02:29N 51°16' E 004°22'0 0.0
2018-Jun-12 01:59N 51°16' E 004°22'0 0.0
2018-Jun-12 01:29N 51°16' E 004°22'0 0.0
2018-Jun-12 00:59N 51°16' E 004°22'0 0.0
2018-Jun-12 00:26N 51°16' E 004°22'0 0.0
2018-Jun-11 23:59N 51°16' E 004°22'0 0.0
2018-Jun-11 23:29N 51°16' E 004°22'0 0.0
2018-Jun-11 22:56N 51°16' E 004°22'0 0.0
2018-Jun-11 22:23N 51°16' E 004°22'0 0.0
2018-Jun-11 21:59N 51°16' E 004°22'0 0.0
2018-Jun-11 21:29N 51°16' E 004°22'0 0.0
2018-Jun-11 20:59N 51°16' E 004°22'0 0.0
2018-Jun-11 20:23N 51°16' E 004°22'0 0.0
2018-Jun-11 19:53N 51°16' E 004°22'0 0.0
2018-Jun-11 19:29N 51°16' E 004°22'0 0.0
2018-Jun-11 18:59N 51°16' E 004°22'0 0.0
2018-Jun-11 18:29N 51°16' E 004°22'0 0.0
2018-Jun-11 17:59N 51°16' E 004°22'0 0.0
2018-Jun-11 17:29N 51°16' E 004°22'0 0.0
2018-Jun-11 16:59N 51°16' E 004°22'0 0.0
2018-Jun-11 16:29N 51°16' E 004°22'0 0.0
2018-Jun-11 15:59N 51°16' E 004°22'0 0.0
2018-Jun-11 15:29N 51°16' E 004°22'0 0.0
2018-Jun-11 14:59N 51°16' E 004°22'0 0.0
2018-Jun-11 14:29N 51°16' E 004°22'0 0.0
2018-Jun-11 13:59N 51°16' E 004°22'0 0.0
2018-Jun-11 13:29N 51°16' E 004°22'0 0.0
2018-Jun-11 12:59N 51°16' E 004°22'0 0.0
2018-Jun-11 12:26N 51°16' E 004°22'0 0.0
2018-Jun-11 11:56N 51°16' E 004°22'0 0.0
2018-Jun-11 11:29N 51°16' E 004°22'0 0.0
2018-Jun-11 10:59N 51°16' E 004°22'0 0.0
2018-Jun-11 10:29N 51°16' E 004°22'0 0.0
2018-Jun-11 09:59N 51°16' E 004°22'0 0.0
2018-Jun-11 09:20N 51°16' E 004°22'0 0.0
2018-Jun-11 08:59N 51°16' E 004°22'0 0.0
2018-Jun-11 08:29N 51°16' E 004°22'0 0.0
2018-Jun-11 07:59N 51°16' E 004°22'0 0.0
2018-Jun-11 07:29N 51°16' E 004°22'0 0.0
2018-Jun-11 06:56N 51°16' E 004°22'0 0.0
2018-Jun-11 06:29N 51°16' E 004°22'0 0.0
2018-Jun-11 05:59N 51°16' E 004°22'0 0.0
2018-Jun-11 05:29N 51°16' E 004°22'0 0.0
2018-Jun-11 04:59N 51°16' E 004°22'0 0.0
2018-Jun-11 04:29N 51°16' E 004°22'0 0.0
2018-Jun-11 03:59N 51°16' E 004°22'0 0.0
2018-Jun-11 03:29N 51°16' E 004°22'0 0.0
2018-Jun-11 02:59N 51°16' E 004°22'0 0.0
2018-Jun-11 02:29N 51°16' E 004°22'0 0.0
2018-Jun-11 01:59N 51°16' E 004°22'0 0.0
2018-Jun-11 01:29N 51°16' E 004°22'0 0.0
2018-Jun-11 00:59N 51°16' E 004°22'0 0.0
2018-Jun-11 00:26N 51°16' E 004°22'0 0.0
2018-Jun-10 23:59N 51°16' E 004°22'0 0.0
2018-Jun-10 23:29N 51°16' E 004°22'0 0.0
2018-Jun-10 22:59N 51°16' E 004°22'0 0.0
2018-Jun-10 22:30N 51°16' E 004°22'0 0.0
2018-Jun-10 21:59N 51°16' E 004°22'0 0.0
2018-Jun-10 21:29N 51°16' E 004°22'0 0.0
2018-Jun-10 20:56N 51°16' E 004°22'0 0.0
2018-Jun-10 20:29N 51°16' E 004°22'0 0.0
2018-Jun-10 19:56N 51°16' E 004°22'0 0.0
2018-Jun-10 19:29N 51°16' E 004°22'0 0.0
2018-Jun-10 18:59N 51°16' E 004°22'0 0.0
2018-Jun-10 18:29N 51°16' E 004°22'0 0.0
2018-Jun-10 17:59N 51°16' E 004°22'0 0.0
2018-Jun-10 17:29N 51°16' E 004°22'0 0.0
2018-Jun-10 16:59N 51°16' E 004°22'0 0.0
2018-Jun-10 16:29N 51°16' E 004°22'0 0.0
2018-Jun-10 16:00N 51°16' E 004°22'1 2.3
2018-Jun-10 15:31N 51°16' E 004°20'1 1.1
2018-Jun-10 15:01N 51°17' E 004°20'0 0.0
2018-Jun-10 14:00N 51°17' E 004°20'1 2.9
2018-Jun-10 13:30N 51°18' E 004°18'3 6.8
2018-Jun-10 13:01N 51°21' E 004°16'4 8.3
2018-Jun-10 12:30N 51°24' E 004°12'4 8.9
2018-Jun-10 12:00N 51°22' E 004°05'5 9.7
2018-Jun-10 11:30N 51°26' E 004°00'510.3
2018-Jun-10 11:01N 51°22' E 003°55'4 8.8
2018-Jun-10 10:31N 51°20' E 003°49'1 1.2
2018-Jun-10 10:00N 51°20' E 003°49'1 1.9
2018-Jun-10 09:31N 51°19' E 003°50'2 4.7
2018-Jun-10 09:01N 51°17' E 003°51'0 0.0
2018-Jun-10 08:30N 51°17' E 003°51'0 0.0
2018-Jun-10 08:00N 51°17' E 003°51'0 0.0
2018-Jun-10 07:27N 51°17' E 003°51'0 0.0
2018-Jun-10 07:00N 51°17' E 003°51'0 0.0
2018-Jun-10 06:27N 51°17' E 003°51'0 0.0
2018-Jun-10 05:54N 51°17' E 003°51'0 0.0
2018-Jun-10 05:21N 51°17' E 003°51'0 0.0
2018-Jun-10 04:51N 51°17' E 003°51'0 0.0
2018-Jun-10 04:30N 51°17' E 003°51'0 0.0
2018-Jun-10 04:00N 51°17' E 003°51'0 0.0
2018-Jun-10 03:30N 51°17' E 003°51'0 0.0
2018-Jun-10 03:00N 51°17' E 003°51'0 0.0
2018-Jun-10 02:30N 51°17' E 003°51'0 0.0
2018-Jun-10 01:57N 51°17' E 003°51'0 0.0
2018-Jun-10 01:30N 51°17' E 003°51'0 0.0
2018-Jun-10 01:00N 51°17' E 003°51'0 0.0
2018-Jun-10 00:24N 51°17' E 003°51'0 0.0
2018-Jun-09 23:58N 51°17' E 003°51'0 0.0
2018-Jun-09 23:25N 51°17' E 003°51'0 0.0
2018-Jun-09 22:55N 51°17' E 003°51'0 0.0
2018-Jun-09 22:28N 51°17' E 003°51'0 0.0
2018-Jun-09 21:58N 51°17' E 003°51'0 0.0
2018-Jun-09 21:26N 51°17' E 003°51'0 0.0
2018-Jun-09 20:50N 51°17' E 003°51'0 0.0
2018-Jun-09 20:26N 51°17' E 003°51'0 0.0
2018-Jun-09 19:56N 51°17' E 003°51'0 0.0
2018-Jun-09 19:26N 51°17' E 003°51'0 0.0
2018-Jun-09 18:59N 51°17' E 003°51'0 0.0
2018-Jun-09 18:29N 51°17' E 003°51'0 0.0
2018-Jun-09 17:56N 51°17' E 003°51'0 0.0
2018-Jun-09 17:29N 51°17' E 003°51'0 0.0
2018-Jun-09 16:59N 51°17' E 003°51'0 0.0
2018-Jun-09 16:26N 51°17' E 003°51'0 0.0
2018-Jun-09 15:56N 51°17' E 003°51'0 0.0
2018-Jun-09 15:26N 51°17' E 003°51'0 0.0
2018-Jun-09 14:26N 51°17' E 003°51'0 0.0
2018-Jun-09 13:59N 51°17' E 003°51'0 0.0
2018-Jun-09 13:26N 51°17' E 003°51'0 0.0
2018-Jun-09 12:53N 51°17' E 003°51'0 0.0
2018-Jun-09 12:26N 51°17' E 003°51'0 0.0
2018-Jun-09 11:56N 51°17' E 003°51'0 0.0
2018-Jun-09 11:26N 51°17' E 003°51'0 0.0
2018-Jun-09 10:56N 51°17' E 003°51'0 0.0
2018-Jun-09 10:26N 51°17' E 003°51'0 0.0
2018-Jun-09 09:59N 51°17' E 003°51'0 0.0
2018-Jun-09 09:26N 51°17' E 003°51'0 0.0
2018-Jun-09 08:50N 51°17' E 003°51'0 0.0
2018-Jun-09 08:29N 51°17' E 003°51'0 0.0
2018-Jun-09 07:53N 51°17' E 003°51'0 0.0
2018-Jun-09 07:29N 51°17' E 003°51'0 0.0
2018-Jun-09 06:59N 51°17' E 003°51'0 0.0
2018-Jun-09 06:20N 51°17' E 003°51'0 0.0
2018-Jun-09 05:56N 51°17' E 003°51'0 0.0
2018-Jun-09 05:29N 51°17' E 003°51'0 0.0
2018-Jun-09 05:00N 51°17' E 003°51'0 0.0
2018-Jun-09 04:28N 51°17' E 003°51'0 0.0
2018-Jun-09 03:58N 51°17' E 003°51'0 0.0
2018-Jun-09 03:28N 51°17' E 003°51'0 0.0
2018-Jun-09 02:58N 51°17' E 003°51'0 0.0
2018-Jun-09 02:28N 51°17' E 003°51'0 0.0
2018-Jun-09 01:58N 51°17' E 003°51'0 0.0
2018-Jun-09 01:28N 51°17' E 003°51'0 0.0
2018-Jun-09 00:58N 51°17' E 003°51'0 0.0
2018-Jun-09 00:28N 51°17' E 003°51'0 0.0
2018-Jun-08 23:58N 51°17' E 003°51'0 0.0
2018-Jun-08 23:28N 51°17' E 003°51'0 0.0
2018-Jun-08 22:58N 51°17' E 003°51'0 0.0
2018-Jun-08 22:28N 51°17' E 003°51'  
Track history (hours):
 
Tides and Currents Weather Stations Pressure Air Temp Water Temp Dewpoint Dewpoint Depression Visibility Wind Speed Wind Dir Waves Ship Positions

Silver Ray

Last reported at 2018-Jun-18 22:07 UTC. Time now 2018-Jun-24 11:13 UTC.
Position N 48°53' W 006°39'.

Length 142 m; draft 10.3 m.

Type: Tanker. MMSI: 636015953.

Date/timePositionNaut miles runAvg speedWind from/ knotsBaromVisibWave heightAir tempDewpointWater temp
2018-Jun-18 22:07N 48°53' W 006°39'212.2
2018-Jun-18 21:58N 48°53' W 006°36'612.2
2018-Jun-18 21:29N 48°56' W 006°28'612.0
2018-Jun-18 20:58N 48°59' W 006°20'511.8
2018-Jun-18 20:31N 49°01' W 006°12'611.5
2018-Jun-18 20:01N 49°04' W 006°05'711.3
2018-Jun-18 19:21N 49°08' W 005°55'10912.5
2018-Jun-18 10:41N 49°52' W 003°22'311.6
2018-Jun-18 10:27N 49°53' W 003°18'1111.5
2018-Jun-18 09:31N 49°57' W 003°02'011.5
2018-Jun-18 09:30N 49°57' W 003°02'611.9
2018-Jun-18 09:00N 49°59' W 002°54'612.3
2018-Jun-18 08:30N 50°01' W 002°45'713.0
2018-Jun-18 07:58N 50°03' W 002°34'713.9
2018-Jun-18 07:28N 50°06' W 002°24'914.8
2018-Jun-18 06:52N 50°09' W 002°11'1315.9
2018-Jun-18 06:03N 50°12' W 001°51'816.6
2018-Jun-18 05:34N 50°15' W 001°40'716.8
2018-Jun-18 05:09N 50°16' W 001°29'7013.8
2018-Jun-18 00:05N 50°35' E 000°17'110.8
2018-Jun-17 23:59N 50°35' E 000°18'510.6
2018-Jun-17 23:30N 50°37' E 000°26'611.1
2018-Jun-17 23:00N 50°38' E 000°35'612.0
2018-Jun-17 22:30N 50°41' E 000°43'713.0
2018-Jun-17 22:00N 50°45' E 000°51'714.0
2018-Jun-17 21:30N 50°49' E 000°60'714.7
2018-Jun-17 21:00N 50°54' E 001°09'714.9
2018-Jun-17 20:31N 50°59' E 001°17'714.7
2018-Jun-17 20:00N 51°04' E 001°26'713.9
2018-Jun-17 19:30N 51°08' E 001°35'713.1
2018-Jun-17 19:00N 51°12' E 001°43'612.4
2018-Jun-17 18:30N 51°17' E 001°49'611.8
2018-Jun-17 18:00N 51°22' E 001°55'510.2
2018-Jun-17 17:30N 51°25' E 002°02'612.8
2018-Jun-17 17:00N 51°22' E 002°11'611.3
2018-Jun-17 16:30N 51°21' E 002°20'511.0
2018-Jun-17 16:00N 51°22' E 002°28'610.9
2018-Jun-17 15:28N 51°23' E 002°38'4 9.5
2018-Jun-17 14:59N 51°23' E 002°45'4 8.2
2018-Jun-17 14:30N 51°22' E 002°51'510.3
2018-Jun-17 14:00N 51°23' E 002°59'510.9
2018-Jun-17 13:30N 51°24' E 003°08'611.8
2018-Jun-17 13:00N 51°25' E 003°17'611.6
2018-Jun-17 12:30N 51°25' E 003°26'510.2
2018-Jun-17 12:00N 51°26' E 003°34'4 8.4
2018-Jun-17 11:30N 51°26' E 003°41'510.3
2018-Jun-17 11:00N 51°22' E 003°46'510.7
2018-Jun-17 10:30N 51°22' E 003°54'611.2
2018-Jun-17 10:00N 51°26' E 003°60'510.8
2018-Jun-17 09:30N 51°22' E 004°05'5 9.6
2018-Jun-17 09:00N 51°23' E 004°13'3 5.3
2018-Jun-17 08:30N 51°21' E 004°16'1 1.5
2018-Jun-17 08:00N 51°21' E 004°17'0 0.0
2018-Jun-17 07:31N 51°21' E 004°17'2 4.8
2018-Jun-17 07:01N 51°19' E 004°19'3 5.5
2018-Jun-17 06:30N 51°16' E 004°21'2 2.9
2018-Jun-17 05:58N 51°15' E 004°23'0 0.0
2018-Jun-17 05:25N 51°15' E 004°23'0 0.0
2018-Jun-17 04:58N 51°15' E 004°23'0 0.0
2018-Jun-17 04:28N 51°15' E 004°23'0 0.0
2018-Jun-17 03:58N 51°15' E 004°23'0 0.0
2018-Jun-17 03:28N 51°15' E 004°23'0 0.0
2018-Jun-17 02:58N 51°15' E 004°23'0 0.0
2018-Jun-17 02:28N 51°15' E 004°23'0 0.0
2018-Jun-17 01:58N 51°15' E 004°23'0 0.0
2018-Jun-17 01:28N 51°15' E 004°23'0 0.0
2018-Jun-17 00:58N 51°15' E 004°23'0 0.0
2018-Jun-17 00:28N 51°15' E 004°23'0 0.0
2018-Jun-16 23:58N 51°15' E 004°23'0 0.0
2018-Jun-16 23:25N 51°15' E 004°23'0 0.0
2018-Jun-16 22:58N 51°15' E 004°23'0 0.0
2018-Jun-16 22:28N 51°15' E 004°23'0 0.0
2018-Jun-16 21:55N 51°15' E 004°23'0 0.0
2018-Jun-16 21:28N 51°15' E 004°23'0 0.0
2018-Jun-16 20:58N 51°15' E 004°23'0 0.0
2018-Jun-16 20:28N 51°15' E 004°23'0 0.0
2018-Jun-16 19:58N 51°15' E 004°23'0 0.0
2018-Jun-16 19:28N 51°15' E 004°23'0 0.0
2018-Jun-16 18:58N 51°15' E 004°23'0 0.0
2018-Jun-16 18:28N 51°15' E 004°23'0 0.0
2018-Jun-16 17:58N 51°15' E 004°23'0 0.0
2018-Jun-16 17:28N 51°15' E 004°23'0 0.0
2018-Jun-16 16:58N 51°15' E 004°23'0 0.0
2018-Jun-16 16:28N 51°15' E 004°23'0 0.0
2018-Jun-16 15:58N 51°15' E 004°23'0 0.0
2018-Jun-16 15:28N 51°15' E 004°23'0 0.0
2018-Jun-16 14:58N 51°15' E 004°23'0 0.0
2018-Jun-16 14:28N 51°15' E 004°23'0 0.0
2018-Jun-16 13:58N 51°15' E 004°23'0 0.0
2018-Jun-16 13:25N 51°15' E 004°23'0 0.5
2018-Jun-16 12:58N 51°15' E 004°22'0 0.0
2018-Jun-16 12:28N 51°15' E 004°22'0 0.0
2018-Jun-16 11:55N 51°15' E 004°22'0 0.0
2018-Jun-16 11:28N 51°15' E 004°22'0 0.0
2018-Jun-16 10:58N 51°15' E 004°22'0 0.0
2018-Jun-16 10:28N 51°15' E 004°22'0 0.0
2018-Jun-16 09:58N 51°15' E 004°22'0 0.0
2018-Jun-16 09:28N 51°15' E 004°22'0 0.0
2018-Jun-16 08:58N 51°15' E 004°22'0 0.0
2018-Jun-16 08:28N 51°15' E 004°22'0 0.0
2018-Jun-16 07:58N 51°15' E 004°22'0 0.0
2018-Jun-16 07:28N 51°15' E 004°22'0 0.0
2018-Jun-16 06:58N 51°15' E 004°22'0 0.0
2018-Jun-16 06:28N 51°15' E 004°22'0 0.0
2018-Jun-16 05:58N 51°15' E 004°22'0 0.0
2018-Jun-16 05:28N 51°15' E 004°22'0 0.0
2018-Jun-16 04:58N 51°15' E 004°22'0 0.0
2018-Jun-16 04:28N 51°15' E 004°22'0 0.0
2018-Jun-16 03:58N 51°15' E 004°22'0 0.0
2018-Jun-16 03:25N 51°15' E 004°22'0 0.0
2018-Jun-16 02:58N 51°15' E 004°22'0 0.0
2018-Jun-16 02:28N 51°15' E 004°22'0 0.0
2018-Jun-16 01:58N 51°15' E 004°22'0 0.0
2018-Jun-16 01:28N 51°15' E 004°22'0 0.0
2018-Jun-16 00:58N 51°15' E 004°22'0 0.0
2018-Jun-16 00:28N 51°15' E 004°22'0 0.0
2018-Jun-15 23:58N 51°15' E 004°22'0 0.0
2018-Jun-15 23:25N 51°15' E 004°22'0 0.0
2018-Jun-15 22:55N 51°15' E 004°22'0 0.0
2018-Jun-15 22:25N 51°15' E 004°22'0 0.0
2018-Jun-15 21:58N 51°15' E 004°22'0 0.0
2018-Jun-15 21:28N 51°15' E 004°22'0 0.0
2018-Jun-15 20:58N 51°15' E 004°22'0 0.0
2018-Jun-15 20:22N 51°15' E 004°22'0 0.0
2018-Jun-15 19:49N 51°15' E 004°22'0 0.0
2018-Jun-15 19:28N 51°15' E 004°22'0 0.0
2018-Jun-15 18:58N 51°15' E 004°22'0 0.0
2018-Jun-15 18:28N 51°15' E 004°22'0 0.0
2018-Jun-15 17:49N 51°15' E 004°22'0 0.0
2018-Jun-15 17:28N 51°15' E 004°22'0 0.0
2018-Jun-15 16:58N 51°15' E 004°22'0 0.0
2018-Jun-15 16:28N 51°15' E 004°22'0 0.0
2018-Jun-15 15:55N 51°15' E 004°22'0 0.0
2018-Jun-15 15:28N 51°15' E 004°22'0 0.0
2018-Jun-15 14:58N 51°15' E 004°22'0 0.0
2018-Jun-15 14:28N 51°15' E 004°22'0 0.0
2018-Jun-15 13:58N 51°15' E 004°22'0 0.0
2018-Jun-15 13:28N 51°15' E 004°22'0 0.0
2018-Jun-15 12:58N 51°15' E 004°22'0 0.0
2018-Jun-15 12:28N 51°15' E 004°22'0 0.0
2018-Jun-15 11:58N 51°15' E 004°22'0 0.0
2018-Jun-15 11:28N 51°15' E 004°22'0 0.0
2018-Jun-15 10:58N 51°15' E 004°22'0 0.0
2018-Jun-15 10:28N 51°15' E 004°22'0 0.0
2018-Jun-15 09:58N 51°15' E 004°22'0 0.0
2018-Jun-15 09:28N 51°15' E 004°22'0 0.0
2018-Jun-15 08:58N 51°15' E 004°22'0 0.0
2018-Jun-15 08:25N 51°15' E 004°22'0 0.0
2018-Jun-15 07:58N 51°15' E 004°22'0 0.0
2018-Jun-15 07:28N 51°15' E 004°22'0 0.0
2018-Jun-15 06:58N 51°15' E 004°22'0 0.0
2018-Jun-15 06:22N 51°15' E 004°22'0 0.0
2018-Jun-15 05:58N 51°15' E 004°22'0 0.0
2018-Jun-15 05:28N 51°15' E 004°22'0 0.0
2018-Jun-15 04:58N 51°15' E 004°22'0 0.0
2018-Jun-15 04:28N 51°15' E 004°22'0 0.0
2018-Jun-15 03:58N 51°15' E 004°22'0 0.0
2018-Jun-15 03:28N 51°15' E 004°22'0 0.0
2018-Jun-15 02:58N 51°15' E 004°22'0 0.0
2018-Jun-15 02:28N 51°15' E 004°22'0 0.0
2018-Jun-15 01:58N 51°15' E 004°22'0 0.0
2018-Jun-15 01:28N 51°15' E 004°22'0 0.0
2018-Jun-15 00:58N 51°15' E 004°22'0 0.0
2018-Jun-15 00:25N 51°15' E 004°22'0 0.0
2018-Jun-14 23:58N 51°15' E 004°22'0 0.0
2018-Jun-14 23:28N 51°15' E 004°22'0 0.0
2018-Jun-14 22:58N 51°15' E 004°22'0 0.0
2018-Jun-14 22:25N 51°15' E 004°22'0 0.0
2018-Jun-14 21:58N 51°15' E 004°22'0 0.0
2018-Jun-14 21:28N 51°15' E 004°22'0 0.0
2018-Jun-14 20:58N 51°15' E 004°22'0 0.0
2018-Jun-14 20:28N 51°15' E 004°22'0 0.0
2018-Jun-14 19:58N 51°15' E 004°22'0 0.0
2018-Jun-14 19:28N 51°15' E 004°22'0 0.0
2018-Jun-14 18:58N 51°15' E 004°22'0 0.0
2018-Jun-14 18:28N 51°15' E 004°22'0 0.0
2018-Jun-14 17:58N 51°15' E 004°22'0 0.0
2018-Jun-14 17:28N 51°15' E 004°22'0 0.0
2018-Jun-14 16:58N 51°15' E 004°22'0 0.0
2018-Jun-14 16:28N 51°15' E 004°22'0 0.0
2018-Jun-14 15:58N 51°15' E 004°22'0 0.0
2018-Jun-14 15:28N 51°15' E 004°22'0 0.0
2018-Jun-14 14:58N 51°15' E 004°22'0 0.0
2018-Jun-14 14:28N 51°15' E 004°22'0 0.0
2018-Jun-14 13:58N 51°15' E 004°22'0 0.0
2018-Jun-14 13:28N 51°15' E 004°22'0 0.0
2018-Jun-14 12:58N 51°15' E 004°22'0 0.0
2018-Jun-14 12:28N 51°15' E 004°22'0 0.0
2018-Jun-14 11:58N 51°15' E 004°22'0 0.0
2018-Jun-14 11:28N 51°15' E 004°22'0 0.0
2018-Jun-14 10:55N 51°15' E 004°22'0 0.0
2018-Jun-14 10:28N 51°15' E 004°22'0 0.0
2018-Jun-14 09:58N 51°15' E 004°22'0 0.0
2018-Jun-14 09:28N 51°15' E 004°22'0 0.0
2018-Jun-14 08:58N 51°15' E 004°22'0 0.0
2018-Jun-14 08:16N 51°15' E 004°22'0 0.0
2018-Jun-14 07:55N 51°15' E 004°22'0 0.0
2018-Jun-14 07:28N 51°15' E 004°22'0 0.0
2018-Jun-14 06:58N 51°15' E 004°22'0 0.0
2018-Jun-14 06:28N 51°15' E 004°22'0 0.0
2018-Jun-14 05:58N 51°15' E 004°22'0 0.0
2018-Jun-14 05:28N 51°15' E 004°22'0 0.0
2018-Jun-14 04:58N 51°15' E 004°22'0 0.0
2018-Jun-14 04:28N 51°15' E 004°22'0 0.0
2018-Jun-14 03:58N 51°15' E 004°22'0 0.0
2018-Jun-14 03:28N 51°15' E 004°22'0 0.0
2018-Jun-14 02:58N 51°15' E 004°22'0 0.0
2018-Jun-14 02:28N 51°15' E 004°22'0 0.0
2018-Jun-14 01:58N 51°15' E 004°22'0 0.0
2018-Jun-14 01:28N 51°15' E 004°22'0 0.0
2018-Jun-14 00:58N 51°15' E 004°22'0 0.0
2018-Jun-14 00:28N 51°15' E 004°22'0 0.0
2018-Jun-13 23:58N 51°15' E 004°22'0 0.0
2018-Jun-13 23:28N 51°15' E 004°22'0 0.0
2018-Jun-13 22:55N 51°15' E 004°22'0 0.0
2018-Jun-13 22:28N 51°15' E 004°22'0 0.0
2018-Jun-13 21:55N 51°15' E 004°22'0 0.0
2018-Jun-13 21:28N 51°15' E 004°22'0 0.0
2018-Jun-13 20:58N 51°15' E 004°22'0 0.0
2018-Jun-13 20:28N 51°15' E 004°22'0 0.0
2018-Jun-13 19:58N 51°15' E 004°22'0 0.0
2018-Jun-13 19:28N 51°15' E 004°22'0 0.0
2018-Jun-13 18:58N 51°15' E 004°22'0 0.0
2018-Jun-13 18:25N 51°15' E 004°22'0 0.0
2018-Jun-13 17:58N 51°15' E 004°22'0 0.0
2018-Jun-13 17:22N 51°15' E 004°22'0 0.0
2018-Jun-13 16:58N 51°15' E 004°22'0 0.0
2018-Jun-13 16:28N 51°15' E 004°22'0 0.0
2018-Jun-13 15:55N 51°15' E 004°22'0 0.0
2018-Jun-13 15:28N 51°15' E 004°22'0 0.0
2018-Jun-13 15:00N 51°15' E 004°22'0 1.0
2018-Jun-13 14:30N 51°16' E 004°22'0 0.2
2018-Jun-13 13:50N 51°16' E 004°22'0 0.0
2018-Jun-13 13:23N 51°16' E 004°22'0 0.0
2018-Jun-13 12:56N 51°16' E 004°22'0 0.0
2018-Jun-13 12:26N 51°16' E 004°22'0 0.0
2018-Jun-13 11:59N 51°16' E 004°22'0 0.0
2018-Jun-13 11:29N 51°16' E 004°22'0 0.0
2018-Jun-13 10:56N 51°16' E 004°22'0 0.0
2018-Jun-13 10:29N 51°16' E 004°22'0 0.0
2018-Jun-13 09:59N 51°16' E 004°22'0 0.0
2018-Jun-13 09:26N 51°16' E 004°22'0 0.0
2018-Jun-13 08:59N 51°16' E 004°22'0 0.0
2018-Jun-13 08:29N 51°16' E 004°22'0 0.0
2018-Jun-13 07:59N 51°16' E 004°22'0 0.0
2018-Jun-13 07:29N 51°16' E 004°22'0 0.0
2018-Jun-13 06:56N 51°16' E 004°22'0 0.0
2018-Jun-13 06:29N 51°16' E 004°22'0 0.0
2018-Jun-13 05:59N 51°16' E 004°22'0 0.0
2018-Jun-13 05:29N 51°16' E 004°22'0 0.0
2018-Jun-13 04:59N 51°16' E 004°22'0 0.0
2018-Jun-13 04:26N 51°16' E 004°22'0 0.0
2018-Jun-13 03:59N 51°16' E 004°22'0 0.0
2018-Jun-13 03:29N 51°16' E 004°22'0 0.0
2018-Jun-13 02:59N 51°16' E 004°22'0 0.0
2018-Jun-13 02:26N 51°16' E 004°22'0 0.0
2018-Jun-13 01:56N 51°16' E 004°22'0 0.0
2018-Jun-13 01:29N 51°16' E 004°22'0 0.0
2018-Jun-13 00:56N 51°16' E 004°22'0 0.0
2018-Jun-13 00:29N 51°16' E 004°22'0 0.0
2018-Jun-12 23:59N 51°16' E 004°22'0 0.0
2018-Jun-12 23:29N 51°16' E 004°22'0 0.0
2018-Jun-12 22:56N 51°16' E 004°22'0 0.0
2018-Jun-12 22:29N 51°16' E 004°22'0 0.0
2018-Jun-12 21:59N 51°16' E 004°22'0 0.0
2018-Jun-12 21:29N 51°16' E 004°22'0 0.0
2018-Jun-12 20:56N 51°16' E 004°22'0 0.0
2018-Jun-12 20:29N 51°16' E 004°22'0 0.0
2018-Jun-12 19:59N 51°16' E 004°22'0 0.0
2018-Jun-12 19:29N 51°16' E 004°22'0 0.0
2018-Jun-12 18:59N 51°16' E 004°22'0 0.0
2018-Jun-12 18:29N 51°16' E 004°22'0 0.0
2018-Jun-12 17:59N 51°16' E 004°22'0 0.0
2018-Jun-12 17:29N 51°16' E 004°22'0 0.0
2018-Jun-12 16:59N 51°16' E 004°22'0 0.0
2018-Jun-12 16:29N 51°16' E 004°22'0 0.0
2018-Jun-12 15:59N 51°16' E 004°22'0 0.0
2018-Jun-12 15:23N 51°16' E 004°22'0 0.0
2018-Jun-12 14:59N 51°16' E 004°22'0 0.0
2018-Jun-12 14:29N 51°16' E 004°22'0 0.0
2018-Jun-12 13:59N 51°16' E 004°22'0 0.0
2018-Jun-12 13:29N 51°16' E 004°22'0 0.0
2018-Jun-12 12:59N 51°16' E 004°22'0 0.0
2018-Jun-12 12:29N 51°16' E 004°22'0 0.0
2018-Jun-12 11:59N 51°16' E 004°22'0 0.0
2018-Jun-12 11:29N 51°16' E 004°22'0 0.0
2018-Jun-12 10:56N 51°16' E 004°22'0 0.0
2018-Jun-12 10:29N 51°16' E 004°22'0 0.0
2018-Jun-12 09:59N 51°16' E 004°22'0 0.0
2018-Jun-12 09:29N 51°16' E 004°22'0 0.0
2018-Jun-12 08:59N 51°16' E 004°22'0 0.0
2018-Jun-12 08:26N 51°16' E 004°22'0 0.0
2018-Jun-12 07:59N 51°16' E 004°22'0 0.0
2018-Jun-12 07:29N 51°16' E 004°22'0 0.0
2018-Jun-12 06:59N 51°16' E 004°22'0 0.0
2018-Jun-12 06:29N 51°16' E 004°22'0 0.0
2018-Jun-12 05:50N 51°16' E 004°22'0 0.0
2018-Jun-12 05:29N 51°16' E 004°22'0 0.0
2018-Jun-12 04:59N 51°16' E 004°22'0 0.0
2018-Jun-12 04:26N 51°16' E 004°22'0 0.0
2018-Jun-12 03:59N 51°16' E 004°22'0 0.0
2018-Jun-12 03:29N 51°16' E 004°22'0 0.0
2018-Jun-12 02:59N 51°16' E 004°22'0 0.0
2018-Jun-12 02:29N 51°16' E 004°22'0 0.0
2018-Jun-12 01:59N 51°16' E 004°22'0 0.0
2018-Jun-12 01:29N 51°16' E 004°22'0 0.0
2018-Jun-12 00:59N 51°16' E 004°22'0 0.0
2018-Jun-12 00:26N 51°16' E 004°22'0 0.0
2018-Jun-11 23:59N 51°16' E 004°22'0 0.0
2018-Jun-11 23:29N 51°16' E 004°22'0 0.0
2018-Jun-11 22:56N 51°16' E 004°22'0 0.0
2018-Jun-11 22:23N 51°16' E 004°22'0 0.0
2018-Jun-11 21:59N 51°16' E 004°22'0 0.0
2018-Jun-11 21:29N 51°16' E 004°22'0 0.0
2018-Jun-11 20:59N 51°16' E 004°22'0 0.0
2018-Jun-11 20:23N 51°16' E 004°22'0 0.0
2018-Jun-11 19:53N 51°16' E 004°22'0 0.0
2018-Jun-11 19:29N 51°16' E 004°22'0 0.0
2018-Jun-11 18:59N 51°16' E 004°22'0 0.0
2018-Jun-11 18:29N 51°16' E 004°22'0 0.0
2018-Jun-11 17:59N 51°16' E 004°22'0 0.0
2018-Jun-11 17:29N 51°16' E 004°22'0 0.0
2018-Jun-11 16:59N 51°16' E 004°22'0 0.0
2018-Jun-11 16:29N 51°16' E 004°22'0 0.0
2018-Jun-11 15:59N 51°16' E 004°22'0 0.0
2018-Jun-11 15:29N 51°16' E 004°22'0 0.0
2018-Jun-11 14:59N 51°16' E 004°22'0 0.0
2018-Jun-11 14:29N 51°16' E 004°22'0 0.0
2018-Jun-11 13:59N 51°16' E 004°22'0 0.0
2018-Jun-11 13:29N 51°16' E 004°22'0 0.0
2018-Jun-11 12:59N 51°16' E 004°22'0 0.0
2018-Jun-11 12:26N 51°16' E 004°22'0 0.0
2018-Jun-11 11:56N 51°16' E 004°22'0 0.0
2018-Jun-11 11:29N 51°16' E 004°22'0 0.0
2018-Jun-11 10:59N 51°16' E 004°22'0 0.0
2018-Jun-11 10:29N 51°16' E 004°22'0 0.0
2018-Jun-11 09:59N 51°16' E 004°22'0 0.0
2018-Jun-11 09:20N 51°16' E 004°22'0 0.0
2018-Jun-11 08:59N 51°16' E 004°22'0 0.0
2018-Jun-11 08:29N 51°16' E 004°22'0 0.0
2018-Jun-11 07:59N 51°16' E 004°22'0 0.0
2018-Jun-11 07:29N 51°16' E 004°22'0 0.0
2018-Jun-11 06:56N 51°16' E 004°22'0 0.0
2018-Jun-11 06:29N 51°16' E 004°22'0 0.0
2018-Jun-11 05:59N 51°16' E 004°22'0 0.0
2018-Jun-11 05:29N 51°16' E 004°22'0 0.0
2018-Jun-11 04:59N 51°16' E 004°22'0 0.0
2018-Jun-11 04:29N 51°16' E 004°22'0 0.0
2018-Jun-11 03:59N 51°16' E 004°22'0 0.0
2018-Jun-11 03:29N 51°16' E 004°22'0 0.0
2018-Jun-11 02:59N 51°16' E 004°22'0 0.0
2018-Jun-11 02:29N 51°16' E 004°22'0 0.0
2018-Jun-11 01:59N 51°16' E 004°22'0 0.0
2018-Jun-11 01:29N 51°16' E 004°22'0 0.0
2018-Jun-11 00:59N 51°16' E 004°22'0 0.0
2018-Jun-11 00:26N 51°16' E 004°22'0 0.0
2018-Jun-10 23:59N 51°16' E 004°22'0 0.0
2018-Jun-10 23:29N 51°16' E 004°22'0 0.0
2018-Jun-10 22:59N 51°16' E 004°22'0 0.0
2018-Jun-10 22:30N 51°16' E 004°22'0 0.0
2018-Jun-10 21:59N 51°16' E 004°22'0 0.0
2018-Jun-10 21:29N 51°16' E 004°22'0 0.0
2018-Jun-10 20:56N 51°16' E 004°22'0 0.0
2018-Jun-10 20:29N 51°16' E 004°22'0 0.0
2018-Jun-10 19:56N 51°16' E 004°22'0 0.0
2018-Jun-10 19:29N 51°16' E 004°22'0 0.0
2018-Jun-10 18:59N 51°16' E 004°22'0 0.0
2018-Jun-10 18:29N 51°16' E 004°22'0 0.0
2018-Jun-10 17:59N 51°16' E 004°22'0 0.0
2018-Jun-10 17:29N 51°16' E 004°22'0 0.0
2018-Jun-10 16:59N 51°16' E 004°22'0 0.0
2018-Jun-10 16:29N 51°16' E 004°22'0 0.0
2018-Jun-10 16:00N 51°16' E 004°22'1 2.3
2018-Jun-10 15:31N 51°16' E 004°20'1 1.1
2018-Jun-10 15:01N 51°17' E 004°20'0 0.0
2018-Jun-10 14:00N 51°17' E 004°20'1 2.9
2018-Jun-10 13:30N 51°18' E 004°18'3 6.8
2018-Jun-10 13:01N 51°21' E 004°16'4 8.3
2018-Jun-10 12:30N 51°24' E 004°12'4 8.9
2018-Jun-10 12:00N 51°22' E 004°05'5 9.7
2018-Jun-10 11:30N 51°26' E 004°00'510.3
2018-Jun-10 11:01N 51°22' E 003°55'4 8.8
2018-Jun-10 10:31N 51°20' E 003°49'1 1.2
2018-Jun-10 10:00N 51°20' E 003°49'1 1.9
2018-Jun-10 09:31N 51°19' E 003°50'2 4.7
2018-Jun-10 09:01N 51°17' E 003°51'0 0.0
2018-Jun-10 08:30N 51°17' E 003°51'0 0.0
2018-Jun-10 08:00N 51°17' E 003°51'0 0.0
2018-Jun-10 07:27N 51°17' E 003°51'0 0.0
2018-Jun-10 07:00N 51°17' E 003°51'0 0.0
2018-Jun-10 06:27N 51°17' E 003°51'0 0.0
2018-Jun-10 05:54N 51°17' E 003°51'0 0.0
2018-Jun-10 05:21N 51°17' E 003°51'0 0.0
2018-Jun-10 04:51N 51°17' E 003°51'0 0.0
2018-Jun-10 04:30N 51°17' E 003°51'0 0.0
2018-Jun-10 04:00N 51°17' E 003°51'0 0.0
2018-Jun-10 03:30N 51°17' E 003°51'0 0.0
2018-Jun-10 03:00N 51°17' E 003°51'0 0.0
2018-Jun-10 02:30N 51°17' E 003°51'0 0.0
2018-Jun-10 01:57N 51°17' E 003°51'0 0.0
2018-Jun-10 01:30N 51°17' E 003°51'0 0.0
2018-Jun-10 01:00N 51°17' E 003°51'0 0.0
2018-Jun-10 00:24N 51°17' E 003°51'0 0.0
2018-Jun-09 23:58N 51°17' E 003°51'0 0.0
2018-Jun-09 23:25N 51°17' E 003°51'0 0.0
2018-Jun-09 22:55N 51°17' E 003°51'0 0.0
2018-Jun-09 22:28N 51°17' E 003°51'0 0.0
2018-Jun-09 21:58N 51°17' E 003°51'0 0.0
2018-Jun-09 21:26N 51°17' E 003°51'0 0.0
2018-Jun-09 20:50N 51°17' E 003°51'0 0.0
2018-Jun-09 20:26N 51°17' E 003°51'0 0.0
2018-Jun-09 19:56N 51°17' E 003°51'0 0.0
2018-Jun-09 19:26N 51°17' E 003°51'0 0.0
2018-Jun-09 18:59N 51°17' E 003°51'0 0.0
2018-Jun-09 18:29N 51°17' E 003°51'0 0.0
2018-Jun-09 17:56N 51°17' E 003°51'0 0.0
2018-Jun-09 17:29N 51°17' E 003°51'0 0.0
2018-Jun-09 16:59N 51°17' E 003°51'0 0.0
2018-Jun-09 16:26N 51°17' E 003°51'0 0.0
2018-Jun-09 15:56N 51°17' E 003°51'0 0.0
2018-Jun-09 15:26N 51°17' E 003°51'0 0.0
2018-Jun-09 14:26N 51°17' E 003°51'0 0.0
2018-Jun-09 13:59N 51°17' E 003°51'0 0.0
2018-Jun-09 13:26N 51°17' E 003°51'0 0.0
2018-Jun-09 12:53N 51°17' E 003°51'0 0.0
2018-Jun-09 12:26N 51°17' E 003°51'0 0.0
2018-Jun-09 11:56N 51°17' E 003°51'0 0.0
2018-Jun-09 11:26N 51°17' E 003°51'0 0.0
2018-Jun-09 10:56N 51°17' E 003°51'0 0.0
2018-Jun-09 10:26N 51°17' E 003°51'0 0.0
2018-Jun-09 09:59N 51°17' E 003°51'0 0.0
2018-Jun-09 09:26N 51°17' E 003°51'0 0.0
2018-Jun-09 08:50N 51°17' E 003°51'0 0.0
2018-Jun-09 08:29N 51°17' E 003°51'0 0.0
2018-Jun-09 07:53N 51°17' E 003°51'0 0.0
2018-Jun-09 07:29N 51°17' E 003°51'0 0.0
2018-Jun-09 06:59N 51°17' E 003°51'0 0.0
2018-Jun-09 06:20N 51°17' E 003°51'0 0.0
2018-Jun-09 05:56N 51°17' E 003°51'0 0.0
2018-Jun-09 05:29N 51°17' E 003°51'0 0.0
2018-Jun-09 05:00N 51°17' E 003°51'0 0.0
2018-Jun-09 04:28N 51°17' E 003°51'0 0.0
2018-Jun-09 03:58N 51°17' E 003°51'0 0.0
2018-Jun-09 03:28N 51°17' E 003°51'0 0.0
2018-Jun-09 02:58N 51°17' E 003°51'0 0.0
2018-Jun-09 02:28N 51°17' E 003°51'0 0.0
2018-Jun-09 01:58N 51°17' E 003°51'0 0.0
2018-Jun-09 01:28N 51°17' E 003°51'0 0.0
2018-Jun-09 00:58N 51°17' E 003°51'0 0.0
2018-Jun-09 00:28N 51°17' E 003°51'0 0.0
2018-Jun-08 23:58N 51°17' E 003°51'0 0.0
2018-Jun-08 23:28N 51°17' E 003°51'0 0.0
2018-Jun-08 22:58N 51°17' E 003°51'0 0.0
2018-Jun-08 22:28N 51°17' E 003°51'  

Dump ship's entire track history